Time;durP1;ratioP1;P1;durP2;ratioP2;P2;SDS_P1;SDS_P2;PMS_P1;PMS_P2;Temp;Humidity;BMP_temperature;BMP_pressure;BME280_temperature;BME280_humidity;BME280_pressure;Samples;Min_cycle;Max_cycle;Signal;HPM_P1;HPM_P2
2023/05/06 00:00:50;;;;;;;18.00;10.45;;;;;;;11.21;100.00;101540.25;5088820;28;20586;-72
2023/05/06 00:03:15;;;;;;;22.27;11.63;;;;;;;11.14;100.00;101524.97;5090179;28;20031;-72
2023/05/06 00:05:41;;;;;;;17.63;9.98;;;;;;;11.13;100.00;101525.16;5089094;28;20035;-72
2023/05/06 00:08:06;;;;;;;19.55;12.07;;;;;;;11.16;100.00;101535.47;5090200;28;20533;-72
2023/05/06 00:10:32;;;;;;;20.13;11.07;;;;;;;11.15;100.00;101537.31;5090197;28;20024;-73
2023/05/06 00:12:57;;;;;;;20.02;12.20;;;;;;;11.17;100.00;101534.47;5089998;28;20115;-72
2023/05/06 00:15:22;;;;;;;18.33;12.10;;;;;;;11.17;100.00;101531.78;5089927;28;20032;-72
2023/05/06 00:17:48;;;;;;;21.60;13.55;;;;;;;11.11;100.00;101527.19;5089907;28;20028;-72
2023/05/06 00:20:13;;;;;;;19.77;11.65;;;;;;;11.10;100.00;101512.19;5090117;28;20115;-72
2023/05/06 00:22:39;;;;;;;18.17;10.73;;;;;;;11.13;100.00;101525.16;5089961;28;20502;-72
2023/05/06 00:25:05;;;;;;;18.02;11.20;;;;;;;11.07;100.00;101529.38;5090031;28;20024;-72
2023/05/06 00:27:30;;;;;;;20.13;12.40;;;;;;;11.02;100.00;101528.28;5090030;28;20051;-72
2023/05/06 00:29:57;;;;;;;20.45;11.57;;;;;;;11.00;100.00;101530.31;5089769;28;20448;-72
2023/05/06 00:32:22;;;;;;;19.73;11.07;;;;;;;10.99;100.00;101525.97;5088440;28;20485;-72
2023/05/06 00:34:47;;;;;;;21.13;12.00;;;;;;;10.97;100.00;101516.31;5089783;28;20035;-72
2023/05/06 00:37:13;;;;;;;19.65;10.90;;;;;;;10.93;100.00;101512.34;5089864;28;20032;-72
2023/05/06 00:39:38;;;;;;;21.17;13.23;;;;;;;10.93;100.00;101508.88;5088366;28;20105;-72
2023/05/06 00:42:03;;;;;;;19.95;11.55;;;;;;;10.94;100.00;101515.84;5088540;28;20139;-72
2023/05/06 00:44:30;;;;;;;19.05;11.80;;;;;;;10.91;100.00;101517.03;5088940;28;20066;-72
2023/05/06 00:46:56;;;;;;;21.40;11.07;;;;;;;10.91;100.00;101518.88;5089542;28;20019;-72
2023/05/06 00:49:22;;;;;;;18.55;10.93;;;;;;;10.87;100.00;101521.09;5089439;28;20049;-72
2023/05/06 00:51:49;;;;;;;15.30;8.68;;;;;;;10.81;100.00;101521.81;5088391;28;20040;-72
2023/05/06 00:54:15;;;;;;;17.73;10.63;;;;;;;10.80;100.00;101522.00;5088173;28;20399;-72
2023/05/06 00:56:40;;;;;;;19.80;11.05;;;;;;;10.72;100.00;101510.41;5088007;28;20028;-72
2023/05/06 00:59:06;;;;;;;16.67;9.75;;;;;;;10.78;100.00;101519.50;5088871;28;20028;-73
2023/05/06 01:01:32;;;;;;;19.05;11.55;;;;;;;10.74;100.00;101512.88;5089526;28;20039;-72
2023/05/06 01:03:57;;;;;;;20.05;10.63;;;;;;;10.74;100.00;101513.72;5089055;28;20028;-72
2023/05/06 01:06:28;;;;;;;22.02;11.93;;;;;;;10.73;100.00;101517.38;5087945;28;20356;-72
2023/05/06 01:08:56;;;;;;;19.00;11.30;;;;;;;10.68;100.00;101503.75;5089243;28;20111;-72
2023/05/06 01:11:42;;;;;;;18.83;10.85;;;;;;;10.67;100.00;101501.28;5087904;28;20042;-73
2023/05/06 01:14:16;;;;;;;18.08;9.73;;;;;;;10.63;100.00;101506.13;5089268;28;20050;-72
2023/05/06 01:16:41;;;;;;;17.90;10.15;;;;;;;10.68;100.00;101513.59;5089013;28;20467;-72
2023/05/06 01:19:09;;;;;;;18.48;11.02;;;;;;;10.68;100.00;101516.25;5089051;28;20065;-72
2023/05/06 01:21:36;;;;;;;19.90;11.07;;;;;;;10.67;100.00;101507.44;5089231;28;20988;-72
2023/05/06 01:24:02;;;;;;;19.48;11.02;;;;;;;10.67;100.00;101502.09;5089125;28;20081;-72
2023/05/06 01:26:27;;;;;;;19.10;11.02;;;;;;;10.60;100.00;101500.34;5089024;28;20024;-72
2023/05/06 01:28:53;;;;;;;19.92;9.88;;;;;;;10.52;100.00;101498.56;5089230;28;20067;-72
2023/05/06 01:31:47;;;;;;;17.60;10.18;;;;;;;10.54;100.00;101501.91;5089140;28;20483;-72
2023/05/06 01:34:37;;;;;;;18.17;10.50;;;;;;;10.49;100.00;101505.09;5086528;28;20040;-72
2023/05/06 01:37:05;;;;;;;16.55;9.88;;;;;;;10.43;100.00;101505.81;5088995;28;20025;-72
2023/05/06 01:39:32;;;;;;;19.65;10.25;;;;;;;10.36;100.00;101496.88;5087807;28;20499;-72
2023/05/06 01:42:00;;;;;;;17.08;9.70;;;;;;;10.30;100.00;101493.09;5088871;28;20028;-72
2023/05/06 01:44:27;;;;;;;16.85;9.40;;;;;;;10.29;100.00;101494.09;5089059;28;20500;-72
2023/05/06 01:46:55;;;;;;;19.88;10.38;;;;;;;10.26;100.00;101505.06;5088966;28;20066;-72
2023/05/06 01:49:22;;;;;;;19.13;9.70;;;;;;;10.27;100.00;101504.13;5089265;28;20038;-72
2023/05/06 01:51:50;;;;;;;20.02;11.88;;;;;;;10.26;100.00;101505.06;5089021;28;20032;-72
2023/05/06 01:54:16;;;;;;;21.00;12.77;;;;;;;10.27;100.00;101509.44;5089310;28;20031;-72
2023/05/06 01:56:41;;;;;;;19.15;9.75;;;;;;;10.26;100.00;101507.75;5092695;28;20028;-72
2023/05/06 01:59:07;;;;;;;18.88;9.40;;;;;;;10.17;100.00;101508.81;5092531;28;20143;-73
2023/05/06 02:01:32;;;;;;;19.20;11.30;;;;;;;10.20;100.00;101516.47;5091276;28;20600;-72
2023/05/06 02:03:57;;;;;;;19.67;11.32;;;;;;;10.23;100.00;101513.44;5092506;28;20097;-72
2023/05/06 02:06:23;;;;;;;17.65;10.75;;;;;;;10.19;100.00;101516.63;5092688;28;20059;-72
2023/05/06 02:08:48;;;;;;;19.05;11.27;;;;;;;10.10;100.00;101502.53;5092564;28;20039;-72
2023/05/06 02:11:14;;;;;;;18.48;9.95;;;;;;;10.14;100.00;101513.66;5092523;28;20031;-72
2023/05/06 02:13:40;;;;;;;18.92;10.88;;;;;;;10.16;100.00;101523.16;5092568;28;20390;-72
2023/05/06 02:16:05;;;;;;;19.02;11.45;;;;;;;10.16;100.00;101517.00;5092262;28;20032;-72
2023/05/06 02:18:31;;;;;;;17.30;9.40;;;;;;;10.09;100.00;101523.03;5092409;28;20046;-72
2023/05/06 02:20:56;;;;;;;18.08;9.85;;;;;;;10.12;100.00;101523.69;5092207;28;20570;-72
2023/05/06 02:23:21;;;;;;;18.95;11.02;;;;;;;10.06;100.00;101523.41;5092297;28;20047;-72
2023/05/06 02:25:47;;;;;;;20.80;11.52;;;;;;;10.07;100.00;101526.88;5090871;28;20111;-72
2023/05/06 02:28:13;;;;;;;20.42;12.13;;;;;;;10.11;100.00;101525.50;5092197;28;20093;-72
2023/05/06 02:30:38;;;;;;;20.13;12.30;;;;;;;10.10;100.00;101516.69;5092068;28;20028;-72
2023/05/06 02:33:03;;;;;;;20.88;12.25;;;;;;;10.12;100.00;101516.53;5091006;28;20470;-72
2023/05/06 02:35:29;;;;;;;17.92;10.52;;;;;;;10.09;100.00;101511.56;5090529;28;20058;-72
2023/05/06 02:37:54;;;;;;;19.42;11.32;;;;;;;10.08;100.00;101526.69;5090787;28;20039;-72
2023/05/06 02:40:20;;;;;;;18.58;9.63;;;;;;;10.03;100.00;101520.22;5091847;28;20082;-72
2023/05/06 02:42:45;;;;;;;19.13;10.35;;;;;;;9.93;100.00;101501.84;5092099;28;20094;-72
2023/05/06 02:45:11;;;;;;;19.90;11.65;;;;;;;10.06;100.00;101527.88;5091878;28;20093;-72
2023/05/06 02:47:36;;;;;;;19.77;10.27;;;;;;;10.03;100.00;101525.56;5091812;28;20035;-72
2023/05/06 02:50:02;;;;;;;20.50;12.40;;;;;;;10.00;100.00;101521.41;5091777;28;20429;-72
2023/05/06 02:52:27;;;;;;;22.30;12.23;;;;;;;9.98;100.00;101515.47;5090321;28;20477;-72
2023/05/06 02:54:53;;;;;;;18.83;11.60;;;;;;;9.95;100.00;101506.97;5091703;28;20032;-72
2023/05/06 02:57:18;;;;;;;19.67;10.80;;;;;;;9.95;100.00;101513.13;5090331;28;20115;-72
2023/05/06 02:59:43;;;;;;;21.83;12.23;;;;;;;9.95;100.00;101512.28;5090014;28;20056;-72
2023/05/06 03:02:09;;;;;;;21.23;12.48;;;;;;;9.93;100.00;101514.28;5090211;28;20078;-72
2023/05/06 03:04:34;;;;;;;20.40;11.55;;;;;;;9.87;100.00;101521.16;5091606;28;20027;-72
2023/05/06 03:07:00;;;;;;;19.73;10.63;;;;;;;9.87;100.00;101519.31;5089401;28;20138;-72
2023/05/06 03:09:25;;;;;;;18.92;11.70;;;;;;;9.85;100.00;101517.84;5091627;28;20432;-72
2023/05/06 03:11:50;;;;;;;17.20;10.45;;;;;;;9.85;100.00;101510.69;5091413;28;20173;-71
2023/05/06 03:14:16;;;;;;;20.13;12.88;;;;;;;9.81;100.00;101506.72;5091386;28;20032;-71
2023/05/06 03:16:41;;;;;;;19.63;10.73;;;;;;;9.78;100.00;101491.09;5091062;28;20024;-71
2023/05/06 03:19:06;;;;;;;18.52;10.52;;;;;;;9.79;100.00;101503.38;5091175;28;20035;-72
2023/05/06 03:21:32;;;;;;;19.23;11.32;;;;;;;9.83;100.00;101509.22;5089760;28;20067;-71
2023/05/06 03:23:57;;;;;;;20.02;11.30;;;;;;;9.83;100.00;101506.56;5091171;28;20036;-71
2023/05/06 03:26:23;;;;;;;20.52;11.95;;;;;;;9.79;100.00;101503.38;5091139;28;20383;-71
2023/05/06 03:28:49;;;;;;;19.25;11.20;;;;;;;9.82;100.00;101507.53;5091049;28;20028;-72
2023/05/06 03:31:14;;;;;;;20.25;11.65;;;;;;;9.73;100.00;101497.94;5091083;28;20031;-71
2023/05/06 03:33:40;;;;;;;19.55;10.80;;;;;;;9.71;100.00;101498.13;5091009;28;20028;-71
2023/05/06 03:36:05;;;;;;;20.52;11.65;;;;;;;9.78;100.00;101517.72;5090684;28;20093;-72
2023/05/06 03:38:31;;;;;;;18.95;11.55;;;;;;;9.74;100.00;101511.06;5090954;28;20039;-71
2023/05/06 03:40:56;;;;;;;22.30;11.70;;;;;;;9.72;100.00;101506.94;5090785;28;20032;-71
2023/05/06 03:43:21;;;;;;;19.42;10.27;;;;;;;9.69;100.00;101504.63;5090796;28;20036;-71
2023/05/06 03:45:47;;;;;;;20.67;10.93;;;;;;;9.71;100.00;101508.75;5090515;28;20161;-71
2023/05/06 03:48:12;;;;;;;18.75;9.98;;;;;;;9.69;100.00;101507.28;5090505;28;20059;-71
2023/05/06 03:50:38;;;;;;;18.70;10.18;;;;;;;9.65;100.00;101510.31;5089310;28;20074;-71
2023/05/06 03:53:03;;;;;;;18.52;10.05;;;;;;;9.67;100.00;101504.81;5089303;28;20043;-71
2023/05/06 03:55:28;;;;;;;18.05;10.65;;;;;;;9.70;100.00;101506.28;5088968;28;20039;-71
2023/05/06 03:57:54;;;;;;;20.05;11.60;;;;;;;9.66;100.00;101497.81;5090545;28;20385;-71
2023/05/06 04:00:19;;;;;;;18.33;9.18;;;;;;;9.59;100.00;101495.03;5090170;28;20118;-72
2023/05/06 04:02:45;;;;;;;18.00;10.75;;;;;;;9.60;100.00;101507.31;5105322;28;20039;-71
2023/05/06 04:05:10;;;;;;;17.25;10.00;;;;;;;9.56;100.00;101502.50;5090428;28;20031;-71
2023/05/06 04:07:35;;;;;;;18.50;9.45;;;;;;;9.60;100.00;101509.16;5088714;28;20078;-71
2023/05/06 04:10:01;;;;;;;16.23;9.27;;;;;;;9.57;100.00;101510.34;5088680;28;20083;-71
2023/05/06 04:12:26;;;;;;;18.88;9.85;;;;;;;9.56;100.00;101510.50;5090011;28;20024;-71
2023/05/06 04:14:52;;;;;;;19.95;10.93;;;;;;;9.59;100.00;101513.66;5089925;28;20479;-71
2023/05/06 04:17:17;;;;;;;18.67;10.15;;;;;;;9.56;100.00;101503.38;5089843;28;20463;-71
2023/05/06 04:19:42;;;;;;;15.43;9.25;;;;;;;9.60;100.00;101515.31;5088946;28;20068;-71
2023/05/06 04:22:08;;;;;;;13.77;7.13;;;;;;;9.64;100.00;101521.97;5088511;28;20042;-71
2023/05/06 04:24:33;;;;;;;15.02;7.75;;;;;;;9.62;100.00;101515.16;5089933;28;20061;-72
2023/05/06 04:26:59;;;;;;;15.13;9.18;;;;;;;9.66;100.00;101519.94;5088561;28;20533;-72
2023/05/06 04:29:25;;;;;;;17.73;10.05;;;;;;;9.73;100.00;101524.59;5089824;28;20046;-71
2023/05/06 04:31:52;;;;;;;15.98;9.13;;;;;;;9.76;100.00;101521.56;5089839;28;20024;-71
2023/05/06 04:34:18;;;;;;;16.73;9.48;;;;;;;9.78;100.00;101517.72;5088569;28;20397;-71
2023/05/06 04:36:43;;;;;;;18.88;10.30;;;;;;;9.88;100.00;101528.16;5089743;28;20032;-71
2023/05/06 04:39:09;;;;;;;19.20;11.15;;;;;;;10.19;100.00;101530.81;5089634;28;20154;-71
2023/05/06 04:41:35;;;;;;;17.77;9.80;;;;;;;10.51;100.00;101524.41;5089607;28;20036;-71
2023/05/06 04:44:00;;;;;;;18.83;9.95;;;;;;;10.58;100.00;101537.84;5089599;28;20121;-71
2023/05/06 04:46:26;;;;;;;16.30;8.52;;;;;;;10.67;100.00;101535.97;5089402;28;20028;-71
2023/05/06 04:48:51;;;;;;;19.52;10.20;;;;;;;10.86;100.00;101535.44;5071212;28;20120;-71
2023/05/06 04:51:16;;;;;;;16.83;9.95;;;;;;;11.16;100.00;101530.97;5089396;28;20034;-71
2023/05/06 04:53:42;;;;;;;16.15;8.52;;;;;;;11.69;100.00;101530.84;5089046;28;20035;-72
2023/05/06 04:56:07;;;;;;;18.45;9.95;;;;;;;12.15;100.00;101535.88;5087710;28;20032;-71
2023/05/06 04:58:33;;;;;;;20.38;10.93;;;;;;;12.61;100.00;101535.50;5088884;28;20118;-71
2023/05/06 05:01:03;;;;;;;18.15;9.68;;;;;;;12.75;100.00;101541.78;5088753;28;20047;-72
2023/05/06 05:03:28;;;;;;;16.48;9.52;;;;;;;12.52;100.00;101536.66;5089172;28;20093;-71
2023/05/06 05:05:54;;;;;;;17.70;9.82;;;;;;;12.34;100.00;101537.13;5088996;28;20467;-72
2023/05/06 05:08:20;;;;;;;19.02;9.45;;;;;;;12.21;100.00;101550.38;5089069;28;20047;-72
2023/05/06 05:10:45;;;;;;;16.05;9.45;;;;;;;12.11;100.00;101544.50;5089178;28;20032;-71
2023/05/06 05:13:12;;;;;;;17.08;9.38;;;;;;;11.94;100.00;101539.38;5104540;28;20387;-71
2023/05/06 05:15:38;;;;;;;15.48;8.93;;;;;;;11.95;100.00;101549.06;5089023;28;20374;-71
2023/05/06 05:18:03;;;;;;;16.25;9.52;;;;;;;11.94;100.00;101547.38;5089061;28;20036;-71
2023/05/06 05:20:28;;;;;;;15.85;9.05;;;;;;;11.93;100.00;101548.41;5088970;28;20043;-72
2023/05/06 05:22:54;;;;;;;15.93;9.32;;;;;;;11.92;100.00;101561.94;5089096;28;20072;-72
2023/05/06 05:25:20;;;;;;;18.10;8.80;;;;;;;11.86;100.00;101560.88;5089277;28;20051;-71
2023/05/06 05:27:45;;;;;;;16.70;9.10;;;;;;;11.79;100.00;101554.59;5089167;28;20031;-71
2023/05/06 05:30:11;;;;;;;14.23;8.13;;;;;;;11.76;100.00;101566.50;5089778;28;20028;-72
2023/05/06 05:32:36;;;;;;;14.20;8.55;;;;;;;11.77;100.00;101573.47;5093389;28;20043;-71
2023/05/06 05:35:02;;;;;;;15.05;8.85;;;;;;;11.81;100.00;101576.59;5092913;28;20035;-72
2023/05/06 05:37:27;;;;;;;15.70;8.65;;;;;;;11.82;100.00;101560.38;5093038;28;20036;-71
2023/05/06 05:39:53;;;;;;;14.45;8.57;;;;;;;11.88;100.00;101564.19;5074518;28;20028;-71
2023/05/06 05:42:18;;;;;;;15.32;9.18;;;;;;;11.88;100.00;101566.84;5093042;28;20035;-72
2023/05/06 05:44:44;;;;;;;16.38;8.73;;;;;;;11.90;100.00;101580.03;5092882;28;20031;-72
2023/05/06 05:47:09;;;;;;;16.17;9.80;;;;;;;11.85;100.00;101573.38;5092619;28;20038;-71
2023/05/06 05:49:35;;;;;;;18.23;9.95;;;;;;;11.82;100.00;101573.75;5092834;28;20468;-72
2023/05/06 05:52:00;;;;;;;17.45;9.45;;;;;;;11.90;100.00;101585.41;5092690;28;20066;-71
2023/05/06 05:54:26;;;;;;;18.25;8.88;;;;;;;11.92;100.00;101580.66;5091247;28;20119;-71
2023/05/06 05:56:51;;;;;;;19.83;9.27;;;;;;;12.00;100.00;101588.59;5092490;28;20039;-71
2023/05/06 05:59:17;;;;;;;16.23;10.20;;;;;;;12.07;100.00;101589.47;5092503;28;20028;-71
2023/05/06 06:01:42;;;;;;;17.85;9.25;;;;;;;12.18;100.00;101585.50;5092153;28;20073;-71
2023/05/06 06:04:08;;;;;;;14.55;8.90;;;;;;;12.30;100.00;101570.59;5092404;28;20348;-71
2023/05/06 06:06:33;;;;;;;17.08;9.05;;;;;;;12.48;100.00;101575.53;5092434;28;20059;-71
2023/05/06 06:08:58;;;;;;;15.80;8.45;;;;;;;12.48;100.00;101578.19;5092404;28;20028;-71
2023/05/06 06:11:25;;;;;;;17.23;9.85;;;;;;;12.60;100.00;101583.84;5092338;28;20044;-71
2023/05/06 06:13:51;;;;;;;16.77;9.27;;;;;;;12.72;100.00;101583.16;5091243;28;20540;-77
2023/05/06 06:16:16;;;;;;;14.52;8.30;;;;;;;12.85;100.00;101579.75;5092625;28;20036;-77
2023/05/06 06:18:42;;;;;;;16.17;9.88;;;;;;;13.10;100.00;101577.47;5074242;28;20077;-77
2023/05/06 06:21:07;;;;;;;17.63;9.90;;;;;;;13.25;100.00;101587.25;5092211;28;20032;-77
2023/05/06 06:23:33;;;;;;;14.43;7.82;;;;;;;13.12;100.00;101564.69;5092317;28;20030;-76
2023/05/06 06:25:58;;;;;;;15.90;9.57;;;;;;;13.12;100.00;101570.06;5092541;28;20539;-77
2023/05/06 06:28:23;;;;;;;17.23;9.07;;;;;;;13.08;100.00;101574.16;5091372;28;20051;-77
2023/05/06 06:30:49;;;;;;;14.80;7.38;;;;;;;13.16;100.00;101582.03;5092219;28;20063;-76
2023/05/06 06:33:14;;;;;;;15.10;7.70;;;;;;;13.21;100.00;101588.69;5091527;28;20039;-76
2023/05/06 06:35:40;;;;;;;14.65;8.00;;;;;;;13.26;100.00;101588.94;5091849;28;20119;-76
2023/05/06 06:38:05;;;;;;;15.10;8.13;;;;;;;13.31;100.00;101591.88;5092262;28;20143;-71
2023/05/06 06:40:30;;;;;;;11.63;6.75;;;;;;;13.40;100.00;101587.19;5091268;28;20030;-71
2023/05/06 06:42:56;;;;;;;11.68;7.00;;;;;;;13.54;100.00;101586.22;5091184;28;20031;-71
2023/05/06 06:45:22;;;;;;;13.43;7.47;;;;;;;13.63;100.00;101589.56;5090220;28;20034;-71
2023/05/06 06:47:47;;;;;;;14.00;7.93;;;;;;;13.64;100.00;101594.72;5091536;28;20039;-71
2023/05/06 06:50:13;;;;;;;14.32;7.90;;;;;;;13.58;100.00;101595.53;5091534;28;20039;-71
2023/05/06 06:52:38;;;;;;;15.60;7.25;;;;;;;13.58;100.00;101601.72;5091589;28;20032;-71
2023/05/06 06:55:04;;;;;;;12.88;7.53;;;;;;;13.57;100.00;101593.84;5091566;28;20116;-71
2023/05/06 06:57:30;;;;;;;12.38;7.45;;;;;;;13.58;100.00;101582.94;5091518;28;20028;-71
2023/05/06 06:59:55;;;;;;;11.45;7.15;;;;;;;13.68;100.00;101593.31;5091278;28;20055;-71
2023/05/06 07:02:21;;;;;;;11.15;7.07;;;;;;;13.78;100.00;101600.97;5088217;28;20100;-71
2023/05/06 07:04:47;;;;;;;17.38;10.27;;;;;;;13.88;100.00;101600.59;5084391;28;20028;-71
2023/05/06 07:07:12;;;;;;;16.05;7.40;;;;;;;14.02;100.00;101599.66;5089523;28;20061;-71
2023/05/06 07:09:42;;;;;;;17.10;7.90;;;;;;;14.09;100.00;101594.28;5091119;28;20031;-72
2023/05/06 07:12:08;;;;;;;16.80;8.52;;;;;;;14.17;100.00;101600.31;5091207;28;20036;-72
2023/05/06 07:14:33;;;;;;;17.17;7.93;;;;;;;14.37;100.00;101600.34;5089662;28;20702;-72
2023/05/06 07:16:59;;;;;;;15.10;9.27;;;;;;;14.43;100.00;101596.03;5091228;28;20090;-72
2023/05/06 07:19:25;;;;;;;15.65;7.93;;;;;;;14.47;100.00;101603.47;5089872;28;20058;-72
2023/05/06 07:21:51;;;;;;;14.15;7.97;;;;;;;14.52;100.00;101602.88;5089769;28;20024;-72
2023/05/06 07:24:16;;;;;;;15.73;9.57;;;;;;;14.71;100.00;101606.63;5090920;28;20094;-72
2023/05/06 07:26:42;;;;;;;17.98;9.95;;;;;;;14.88;100.00;101607.03;5090954;28;20158;-72
2023/05/06 07:29:08;;;;;;;16.10;8.38;;;;;;;15.17;100.00;101604.94;5090438;28;20047;-72
2023/05/06 07:31:33;;;;;;;14.85;8.15;;;;;;;15.56;100.00;101620.19;5090698;28;20032;-72
2023/05/06 07:33:58;;;;;;;13.25;8.25;;;;;;;15.83;100.00;101618.28;5090853;28;20028;-72
2023/05/06 07:36:25;;;;;;;17.30;10.02;;;;;;;16.05;100.00;101618.81;5090611;28;20040;-72
2023/05/06 07:38:51;;;;;;;18.95;10.07;;;;;;;16.23;100.00;101618.09;5090900;28;20036;-72
2023/05/06 07:41:17;;;;;;;14.35;8.80;;;;;;;16.36;100.00;101625.28;5090324;28;20394;-72
2023/05/06 07:43:42;;;;;;;16.33;9.60;;;;;;;16.38;100.00;101618.63;5090583;28;20027;-73
2023/05/06 07:46:07;;;;;;;19.65;9.98;;;;;;;16.59;100.00;101619.34;5090184;28;20463;-72
2023/05/06 07:48:33;;;;;;;16.33;9.20;;;;;;;16.79;100.00;101617.38;5090261;28;20170;-73
2023/05/06 07:50:59;;;;;;;17.60;9.05;;;;;;;16.82;100.00;101616.06;5090081;28;20024;-73
2023/05/06 07:53:25;;;;;;;15.70;8.07;;;;;;;16.87;100.00;101618.94;5089495;28;20028;-73
2023/05/06 07:55:52;;;;;;;16.08;9.77;;;;;;;17.02;100.00;101613.22;5089959;28;20058;-73
2023/05/06 07:58:20;;;;;;;19.45;10.93;;;;;;;17.66;100.00;101622.75;5089240;28;20027;-71
2023/05/06 08:00:46;;;;;;;20.00;9.73;;;;;;;18.32;97.75;101618.41;5088478;28;20060;-72
2023/05/06 08:03:12;;;;;;;16.00;8.30;;;;;;;19.05;91.63;101617.31;5088560;28;20617;-71
2023/05/06 08:05:37;;;;;;;12.68;8.40;;;;;;;19.82;88.85;101616.31;5089573;28;20028;-71
2023/05/06 08:08:02;;;;;;;16.08;8.48;;;;;;;20.66;82.94;101621.16;5089599;28;20039;-72
2023/05/06 08:10:28;;;;;;;14.27;8.73;;;;;;;21.56;78.47;101618.44;5090035;28;20043;-71
2023/05/06 08:12:53;;;;;;;17.27;10.00;;;;;;;22.34;75.08;101623.75;5090242;28;20107;-71
2023/05/06 08:15:19;;;;;;;16.05;9.55;;;;;;;23.35;72.54;101622.94;5089747;28;20146;-71
2023/05/06 08:17:44;;;;;;;15.90;8.07;;;;;;;23.93;69.68;101617.50;5089834;28;20472;-71
2023/05/06 08:20:10;;;;;;;14.00;8.80;;;;;;;24.42;65.55;101620.63;5089929;28;20366;-76
2023/05/06 08:22:35;;;;;;;14.88;7.88;;;;;;;25.20;63.97;101621.44;5089876;28;20046;-76
2023/05/06 08:25:01;;;;;;;16.60;7.97;;;;;;;25.69;60.73;101618.84;5089551;28;20504;-76
2023/05/06 08:27:26;;;;;;;13.07;7.47;;;;;;;26.08;56.79;101617.31;5089978;28;20417;-76
2023/05/06 08:29:51;;;;;;;13.13;7.05;;;;;;;26.59;54.11;101609.63;5089840;28;20031;-76
2023/05/06 08:32:17;;;;;;;12.18;7.72;;;;;;;26.77;54.46;101612.72;5090014;28;20134;-76
2023/05/06 08:34:42;;;;;;;13.32;7.15;;;;;;;27.29;54.00;101609.22;5089966;28;20024;-76
2023/05/06 08:37:08;;;;;;;14.25;6.88;;;;;;;27.62;52.23;101603.09;5089751;28;20043;-76
2023/05/06 08:39:33;;;;;;;8.35;5.10;;;;;;;27.23;52.63;101607.66;5088290;28;20028;-76
2023/05/06 08:42:03;;;;;;;17.45;6.43;;;;;;;26.92;51.10;101609.84;5089507;28;20105;-76
2023/05/06 08:44:28;;;;;;;10.13;5.32;;;;;;;26.51;50.25;101603.88;5088999;28;20042;-76
2023/05/06 08:46:54;;;;;;;11.30;6.40;;;;;;;26.55;51.13;101603.06;5089071;28;20531;-76
2023/05/06 08:49:20;;;;;;;7.57;4.90;;;;;;;25.97;55.18;101594.69;5089802;28;20038;-76
2023/05/06 08:51:48;;;;;;;8.57;4.22;;;;;;;24.74;54.09;101603.19;5089271;28;20032;-76
2023/05/06 08:54:14;;;;;;;11.20;4.80;;;;;;;23.22;59.26;101599.72;5089391;28;20118;-76
2023/05/06 08:56:43;;;;;;;9.10;4.15;;;;;;;22.20;64.29;101598.88;5087796;28;20028;-76
2023/05/06 08:59:09;;;;;;;7.57;4.32;;;;;;;21.68;68.16;101597.44;5088718;28;20093;-76
2023/05/06 09:01:35;;;;;;;9.05;4.55;;;;;;;21.38;71.48;101587.03;5097239;28;20048;-76
2023/05/06 09:04:05;;;;;;;10.20;4.88;;;;;;;21.16;70.58;101586.94;5088863;28;20036;-76
2023/05/06 09:06:30;;;;;;;9.60;5.03;;;;;;;20.68;65.51;101591.91;5089368;28;20028;-76
2023/05/06 09:08:56;;;;;;;6.35;4.38;;;;;;;20.39;70.15;101590.31;5088006;28;20043;-76
2023/05/06 09:11:24;;;;;;;9.45;4.30;;;;;;;20.24;75.90;101590.84;5088746;28;20111;-76
2023/05/06 09:14:05;;;;;;;8.45;4.47;;;;;;;20.19;78.55;101588.03;5088609;28;20038;-75
2023/05/06 09:16:31;;;;;;;5.77;4.03;;;;;;;20.08;76.76;101592.44;5088943;28;20028;-75
2023/05/06 09:18:58;;;;;;;7.93;4.63;;;;;;;20.04;77.35;101577.72;5089556;28;20039;-75
2023/05/06 09:21:44;;;;;;;14.57;4.45;;;;;;;20.17;77.81;101582.03;5089015;28;20056;-76
2023/05/06 09:24:11;;;;;;;7.15;4.18;;;;;;;19.86;68.13;101570.66;5088891;28;20059;-76
2023/05/06 09:26:37;;;;;;;7.43;4.25;;;;;;;19.78;79.15;101579.97;5088827;28;20051;-75
2023/05/06 09:29:04;;;;;;;8.88;3.55;;;;;;;19.82;79.99;101583.00;5089115;28;20032;-75
2023/05/06 09:31:30;;;;;;;8.90;3.80;;;;;;;19.77;78.55;101578.31;5088728;28;20459;-76
2023/05/06 09:33:56;;;;;;;4.90;3.47;;;;;;;19.71;75.00;101571.16;5088762;28;20036;-75
2023/05/06 09:36:24;;;;;;;6.05;3.83;;;;;;;19.76;72.58;101584.78;5088716;28;20079;-76
2023/05/06 09:38:49;;;;;;;6.03;4.20;;;;;;;19.81;71.82;101578.66;5088665;28;20036;-75
2023/05/06 09:41:19;;;;;;;6.43;3.70;;;;;;;19.83;75.44;101568.41;5088266;28;20040;-76
2023/05/06 09:43:47;;;;;;;5.72;3.55;;;;;;;19.99;77.13;101581.19;5081595;28;20491;-72
2023/05/06 09:46:15;;;;;;;7.93;4.07;;;;;;;20.02;73.65;101566.34;5082604;28;20460;-73
2023/05/06 09:48:41;;;;;;;6.32;3.92;;;;;;;19.95;73.11;101571.06;5081783;28;20459;-78
2023/05/06 09:51:07;;;;;;;4.25;2.97;;;;;;;19.97;73.20;101579.78;5081837;28;20024;-78
2023/05/06 09:53:36;;;;;;;5.95;3.40;;;;;;;19.84;75.24;101572.75;5082487;28;20028;-73
2023/05/06 09:56:03;;;;;;;4.88;3.35;;;;;;;19.82;76.36;101574.88;5078911;28;20070;-76
2023/05/06 09:58:30;;;;;;;7.78;3.72;;;;;;;19.80;71.15;101571.59;5079246;28;20071;-72
2023/05/06 10:00:57;;;;;;;6.70;3.63;;;;;;;19.89;71.86;101581.81;5078544;28;20052;-80
2023/05/06 10:03:22;;;;;;;4.28;2.90;;;;;;;20.00;73.86;101566.56;5079355;28;20031;-80
2023/05/06 10:05:48;;;;;;;6.40;2.97;;;;;;;20.08;74.16;101566.19;5081304;28;20032;-75
2023/05/06 10:08:17;;;;;;;3.63;2.65;;;;;;;20.08;68.95;101563.47;5080396;28;20055;-70
2023/05/06 10:10:43;;;;;;;2.85;2.40;;;;;;;20.00;64.76;101565.75;5079655;28;20028;-74
2023/05/06 10:13:09;;;;;;;4.20;2.63;;;;;;;20.06;66.20;101564.78;5081583;28;20020;-75
2023/05/06 10:15:35;;;;;;;8.43;2.97;;;;;;;20.17;64.59;101561.19;5080912;28;20042;-77
2023/05/06 10:18:01;;;;;;;4.30;2.58;;;;;;;20.10;62.88;101560.53;5084000;28;20037;-78
2023/05/06 10:20:30;;;;;;;4.88;3.55;;;;;;;20.19;71.76;101550.13;5084422;28;21393;-79
2023/05/06 10:23:11;;;;;;;6.68;3.17;;;;;;;20.33;70.92;101551.44;5084187;28;20035;-78
2023/05/06 10:25:38;;;;;;;3.45;2.88;;;;;;;20.39;67.51;101550.47;5083133;28;20048;-79
2023/05/06 10:28:06;;;;;;;3.70;2.90;;;;;;;20.50;66.69;101537.91;5083752;28;20024;-75
2023/05/06 10:30:36;;;;;;;5.75;2.60;;;;;;;20.77;72.00;101540.81;5083169;28;20393;-74
2023/05/06 10:33:09;;;;;;;5.28;2.90;;;;;;;20.63;62.34;101542.22;5084348;28;20046;-76
2023/05/06 10:35:41;;;;;;;7.85;3.88;;;;;;;20.57;67.07;101536.72;5083436;28;20031;-76
2023/05/06 10:38:31;;;;;;;3.88;2.72;;;;;;;20.55;65.66;101532.63;5084929;28;20031;-75
2023/05/06 10:40:57;;;;;;;6.57;2.42;;;;;;;20.79;65.29;101533.25;5082294;28;20114;-77
2023/05/06 10:43:30;;;;;;;4.97;1.85;;;;;;;21.09;67.71;101540.19;5085012;28;20036;-78
2023/05/06 10:46:00;;;;;;;2.97;1.75;;;;;;;21.17;64.35;101535.16;5084510;28;20370;-78
2023/05/06 10:48:27;;;;;;;3.10;1.88;;;;;;;21.23;65.54;101531.44;5085224;28;20036;-78
2023/05/06 10:51:24;;;;;;;6.95;2.55;;;;;;;21.26;64.74;101524.69;5085113;28;20048;-78
2023/05/06 10:54:09;;;;;;;3.70;1.92;;;;;;;21.21;65.36;101511.06;5084644;28;20020;-78
2023/05/06 10:56:59;;;;;;;5.10;2.40;;;;;;;21.57;64.31;101530.53;5084335;28;20434;-78
2023/05/06 10:59:25;;;;;;;3.50;1.70;;;;;;;21.88;66.12;101521.66;5084849;28;20036;-78
2023/05/06 11:02:06;;;;;;;4.68;2.63;;;;;;;21.97;60.44;101518.47;5084944;28;20058;-78
2023/05/06 11:04:32;;;;;;;4.35;2.13;;;;;;;22.01;62.16;101523.13;5084773;28;20116;-78
2023/05/06 11:07:08;;;;;;;5.88;1.88;;;;;;;21.80;61.09;101521.28;5085701;28;20056;-79
2023/05/06 11:09:53;;;;;;;4.72;2.83;;;;;;;21.49;60.23;101526.38;5084312;28;20019;-79